Time;durP1;ratioP1;P1;durP2;ratioP2;P2;SDS_P1;SDS_P2;PMS_P1;PMS_P2;Temp;Humidity;BMP_temperature;BMP_pressure;BME280_temperature;BME280_humidity;BME280_pressure;Samples;Min_cycle;Max_cycle;Signal;HPM_P1;HPM_P2
2022/12/02 00:01:12;;;;;;;17.83;8.87;;;4.50;99.90;;;;;;5019903;28;20848;-70
2022/12/02 00:03:38;;;;;;;29.97;12.80;;;4.50;99.90;;;;;;5016788;28;20288;-70
2022/12/02 00:06:08;;;;;;;19.53;10.00;;;4.50;99.90;;;;;;5013893;28;20538;-70
2022/12/02 00:08:36;;;;;;;19.53;9.93;;;4.50;99.90;;;;;;5017279;28;20468;-70
2022/12/02 00:11:21;;;;;;;27.17;9.80;;;4.50;99.90;;;;;;5015067;28;20509;-71
2022/12/02 00:13:47;;;;;;;18.00;8.23;;;4.50;99.90;;;;;;5009620;28;20463;-70
2022/12/02 00:16:24;;;;;;;18.00;8.83;;;4.50;99.90;;;;;;5018781;28;20467;-69
2022/12/02 00:18:50;;;;;;;15.90;9.23;;;4.50;99.90;;;;;;5014978;28;20212;-70
2022/12/02 00:21:15;;;;;;;17.67;8.90;;;4.40;99.90;;;;;;5019942;28;20519;-70
2022/12/02 00:23:41;;;;;;;15.80;8.73;;;4.40;99.90;;;;;;5004282;28;20224;-70
2022/12/02 00:26:07;;;;;;;19.47;8.30;;;4.40;99.90;;;;;;5020085;28;20212;-70
2022/12/02 00:28:33;;;;;;;16.23;7.60;;;4.40;99.90;;;;;;5011133;28;20811;-69
2022/12/02 00:30:59;;;;;;;15.07;7.90;;;4.40;99.90;;;;;;5026135;28;20263;-69
2022/12/02 00:33:24;;;;;;;16.40;9.07;;;4.40;99.90;;;;;;5024238;28;20239;-70
2022/12/02 00:35:50;;;;;;;18.43;9.67;;;4.40;99.90;;;;;;5008282;28;20296;-70
2022/12/02 00:38:16;;;;;;;16.80;8.83;;;4.40;99.90;;;;;;5008150;28;20664;-70
2022/12/02 00:40:42;;;;;;;16.77;9.17;;;4.40;99.90;;;;;;5015872;28;20300;-70
2022/12/02 00:48:37;;;;;;;20.37;9.27;;;4.40;99.90;;;;;;5012456;28;20960;-70
2022/12/02 00:51:03;;;;;;;20.40;8.17;;;4.30;99.90;;;;;;5018369;28;20498;-70
2022/12/02 00:53:29;;;;;;;17.57;8.93;;;4.30;99.90;;;;;;5007437;28;20538;-70
2022/12/02 00:55:55;;;;;;;18.13;8.70;;;4.30;99.90;;;;;;5020020;28;20252;-70
2022/12/02 00:58:20;;;;;;;15.10;9.03;;;4.30;99.90;;;;;;5028217;28;20479;-70
2022/12/02 01:00:46;;;;;;;17.77;9.33;;;4.30;99.90;;;;;;4998719;28;20221;-70
2022/12/02 01:03:12;;;;;;;17.97;10.00;;;4.30;99.90;;;;;;4985005;28;20308;-70
2022/12/02 01:05:38;;;;;;;22.17;8.50;;;4.30;99.90;;;;;;5029881;28;20308;-70
2022/12/02 01:08:03;;;;;;;18.57;7.90;;;4.30;99.90;;;;;;5005369;28;20571;-70
2022/12/02 01:10:29;;;;;;;16.60;7.70;;;4.30;99.90;;;;;;5022978;28;20267;-70
2022/12/02 01:12:54;;;;;;;17.97;8.70;;;4.30;99.90;;;;;;5012292;28;20299;-70
2022/12/02 01:15:20;;;;;;;19.03;8.03;;;4.20;99.90;;;;;;5008664;28;20209;-70
2022/12/02 01:17:46;;;;;;;16.63;9.70;;;4.20;99.90;;;;;;5006758;28;20505;-70
2022/12/02 01:20:12;;;;;;;22.13;9.40;;;4.20;99.90;;;;;;5028542;28;20316;-70
2022/12/02 01:22:38;;;;;;;16.40;9.00;;;4.20;99.90;;;;;;5001758;28;20721;-70
2022/12/02 01:25:04;;;;;;;16.00;8.40;;;4.20;99.90;;;;;;5020216;28;20538;-69
2022/12/02 01:27:29;;;;;;;16.03;8.30;;;4.20;99.90;;;;;;5000016;28;20224;-69
2022/12/02 01:29:55;;;;;;;19.47;8.90;;;4.20;99.90;;;;;;5012320;28;20459;-70
2022/12/02 01:32:23;;;;;;;17.67;8.23;;;4.20;99.90;;;;;;5022507;28;20294;-70
2022/12/02 01:34:49;;;;;;;22.60;9.53;;;4.20;99.90;;;;;;5008554;28;20455;-70
2022/12/02 01:37:15;;;;;;;16.03;7.90;;;4.20;99.90;;;;;;5008545;28;20448;-70
2022/12/02 01:39:41;;;;;;;16.37;7.40;;;4.20;99.90;;;;;;5011814;28;20454;-69
2022/12/02 01:42:08;;;;;;;15.47;9.00;;;4.30;99.90;;;;;;4999797;28;20228;-70
2022/12/02 01:44:36;;;;;;;16.60;8.97;;;4.30;99.90;;;;;;5028255;28;20778;-70
2022/12/02 01:47:03;;;;;;;19.50;10.03;;;4.30;99.90;;;;;;5028012;28;20484;-68
2022/12/02 01:49:29;;;;;;;23.10;9.43;;;4.20;99.90;;;;;;5014992;28;20451;-70
2022/12/02 01:51:55;;;;;;;19.67;9.50;;;4.20;99.90;;;;;;5008665;28;20459;-70
2022/12/02 01:54:20;;;;;;;18.93;9.10;;;4.20;99.90;;;;;;5010083;28;20307;-70
2022/12/02 01:56:46;;;;;;;18.17;9.40;;;4.20;99.90;;;;;;5018564;28;20221;-70
2022/12/02 01:59:14;;;;;;;18.07;9.00;;;4.20;99.90;;;;;;5005656;28;20215;-69
2022/12/02 02:01:40;;;;;;;21.27;8.80;;;4.30;99.90;;;;;;5028435;28;20458;-69
2022/12/02 02:04:07;;;;;;;19.80;7.93;;;4.30;99.90;;;;;;5014140;28;20543;-69
2022/12/02 02:06:36;;;;;;;22.17;9.47;;;4.30;99.90;;;;;;5001672;28;20448;-70
2022/12/02 02:09:03;;;;;;;20.53;9.30;;;4.30;99.90;;;;;;5016596;28;20440;-69
2022/12/02 02:11:30;;;;;;;18.70;8.00;;;4.30;99.90;;;;;;5027748;28;20431;-69
2022/12/02 02:13:58;;;;;;;19.17;9.93;;;4.30;99.90;;;;;;5019812;28;20448;-69
2022/12/02 02:16:24;;;;;;;11.60;7.67;;;4.30;99.90;;;;;;5009456;28;20473;-70
2022/12/02 02:18:50;;;;;;;18.60;9.77;;;4.30;99.90;;;;;;5027848;28;20291;-70
2022/12/02 02:21:21;;;;;;;19.63;10.40;;;4.30;99.90;;;;;;5011530;28;20212;-70
2022/12/02 02:23:47;;;;;;;16.30;8.60;;;4.30;99.90;;;;;;5010324;28;20220;-70
2022/12/02 02:26:13;;;;;;;17.67;8.60;;;4.30;99.90;;;;;;5027772;28;20446;-70
2022/12/02 02:28:38;;;;;;;17.53;9.10;;;4.30;99.90;;;;;;5012660;28;20220;-70
2022/12/02 02:31:05;;;;;;;20.73;10.50;;;4.30;99.90;;;;;;5032201;28;20208;-69
2022/12/02 02:33:37;;;;;;;21.43;10.23;;;4.30;99.90;;;;;;5031808;28;20819;-70
2022/12/02 02:36:03;;;;;;;24.33;10.80;;;4.30;99.90;;;;;;5019956;28;20459;-69
2022/12/02 02:38:30;;;;;;;17.37;8.60;;;4.30;99.90;;;;;;5007664;28;20439;-70
2022/12/02 02:40:58;;;;;;;24.87;10.47;;;4.30;99.90;;;;;;5027827;28;20507;-69
2022/12/02 02:43:26;;;;;;;19.60;9.07;;;4.30;99.90;;;;;;5030010;28;20463;-70
2022/12/02 02:45:53;;;;;;;18.83;9.53;;;4.30;99.90;;;;;;5023426;28;20885;-70
2022/12/02 02:48:22;;;;;;;24.47;10.40;;;4.30;99.90;;;;;;5011095;28;20550;-70
2022/12/02 02:50:49;;;;;;;22.37;10.77;;;4.30;99.90;;;;;;5020064;28;20459;-70
2022/12/02 02:53:19;;;;;;;18.63;9.17;;;4.30;99.90;;;;;;5020803;28;20466;-70
2022/12/02 02:55:45;;;;;;;23.60;10.67;;;4.30;99.90;;;;;;5031431;28;20997;-69
2022/12/02 02:58:23;;;;;;;20.10;9.60;;;4.40;99.90;;;;;;5022036;28;20460;-70
2022/12/02 03:00:54;;;;;;;17.30;8.27;;;4.30;99.90;;;;;;5002706;28;20637;-70
2022/12/02 03:03:23;;;;;;;17.90;10.20;;;4.30;99.90;;;;;;4995451;28;20461;-69
2022/12/02 03:05:52;;;;;;;16.30;9.30;;;4.30;99.90;;;;;;5031798;28;20954;-70
2022/12/02 03:08:19;;;;;;;18.90;9.37;;;4.30;99.90;;;;;;5036464;28;20486;-70
2022/12/02 03:10:46;;;;;;;19.77;8.83;;;4.30;99.90;;;;;;5025604;28;20446;-70
2022/12/02 03:13:12;;;;;;;21.67;10.50;;;4.40;99.90;;;;;;5007935;28;20535;-70
2022/12/02 03:15:38;;;;;;;26.80;12.53;;;4.30;99.90;;;;;;5021309;28;20531;-70
2022/12/02 03:18:04;;;;;;;21.80;11.30;;;4.30;99.90;;;;;;5006719;28;20240;-70
2022/12/02 03:20:30;;;;;;;14.77;8.87;;;4.30;99.90;;;;;;5032924;28;20466;-70
2022/12/02 03:22:56;;;;;;;20.87;9.37;;;4.30;99.90;;;;;;5046311;28;20471;-70
2022/12/02 03:25:21;;;;;;;14.23;9.27;;;4.30;99.90;;;;;;5021487;28;20257;-70
2022/12/02 03:27:47;;;;;;;18.57;9.50;;;4.30;99.90;;;;;;5013595;28;20234;-69
2022/12/02 03:30:13;;;;;;;19.40;9.90;;;4.40;99.90;;;;;;5018790;28;20205;-69
2022/12/02 03:32:39;;;;;;;24.60;10.00;;;4.40;99.90;;;;;;5030376;28;20468;-70
2022/12/02 03:35:06;;;;;;;17.77;8.33;;;4.40;99.90;;;;;;5014210;28;20455;-70
2022/12/02 03:37:32;;;;;;;27.00;11.20;;;4.40;99.90;;;;;;5022457;28;20753;-69
2022/12/02 03:39:58;;;;;;;18.63;10.50;;;4.40;99.90;;;;;;5025743;28;20444;-70
2022/12/02 03:42:25;;;;;;;24.77;10.40;;;4.50;99.90;;;;;;5029188;28;20449;-70
2022/12/02 03:44:50;;;;;;;24.67;10.43;;;4.50;99.90;;;;;;5048087;28;20223;-70
2022/12/02 03:47:16;;;;;;;20.50;9.43;;;4.50;99.90;;;;;;5029214;28;20459;-70
2022/12/02 03:49:43;;;;;;;15.27;8.37;;;4.50;99.90;;;;;;5030763;28;20209;-69
2022/12/02 03:52:10;;;;;;;23.03;10.10;;;4.50;99.90;;;;;;5032127;28;20208;-70
2022/12/02 03:54:36;;;;;;;16.77;9.90;;;4.50;99.90;;;;;;5029594;28;20507;-70
2022/12/02 03:57:05;;;;;;;16.47;8.47;;;4.50;99.90;;;;;;5019849;28;20444;-71
2022/12/02 03:59:31;;;;;;;20.40;9.80;;;4.50;99.90;;;;;;5025062;28;20439;-70
2022/12/02 04:01:56;;;;;;;19.87;9.93;;;4.50;99.90;;;;;;5025877;28;20498;-70
2022/12/02 04:04:22;;;;;;;20.70;10.80;;;4.50;99.90;;;;;;5027992;28;20317;-70
2022/12/02 04:06:48;;;;;;;25.97;10.40;;;4.50;99.90;;;;;;5016749;28;20294;-70
2022/12/02 04:09:13;;;;;;;20.47;9.67;;;4.50;99.90;;;;;;5009445;28;20237;-70
2022/12/02 04:11:39;;;;;;;20.00;9.37;;;4.50;99.90;;;;;;5018041;28;20220;-70
2022/12/02 04:14:04;;;;;;;20.03;9.37;;;4.50;99.90;;;;;;5006323;28;20210;-70
2022/12/02 04:16:30;;;;;;;15.47;7.67;;;4.50;99.90;;;;;;5025369;28;20284;-69
2022/12/02 04:18:56;;;;;;;23.43;10.00;;;4.50;99.90;;;;;;5028136;28;20689;-70
2022/12/02 04:21:23;;;;;;;17.83;8.53;;;4.40;99.90;;;;;;5021772;28;20303;-70
2022/12/02 04:23:51;;;;;;;21.63;9.70;;;4.50;99.90;;;;;;5024085;28;20225;-70
2022/12/02 04:26:18;;;;;;;21.57;10.80;;;4.50;99.90;;;;;;5017124;28;20495;-70
2022/12/02 04:28:44;;;;;;;22.00;9.90;;;4.50;99.90;;;;;;5016797;28;20471;-70
2022/12/02 04:31:09;;;;;;;22.77;10.30;;;4.50;99.90;;;;;;5019398;28;20456;-70
2022/12/02 04:33:35;;;;;;;19.13;8.87;;;4.50;99.90;;;;;;5024587;28;20232;-70
2022/12/02 04:36:00;;;;;;;23.80;9.50;;;4.60;99.90;;;;;;5017669;28;20216;-70
2022/12/02 04:38:26;;;;;;;26.50;11.07;;;4.50;99.90;;;;;;5016210;28;20279;-70
2022/12/02 04:40:52;;;;;;;27.93;11.10;;;4.60;99.90;;;;;;5003404;28;20287;-70
2022/12/02 04:43:17;;;;;;;27.93;8.93;;;4.60;99.90;;;;;;5001690;28;20273;-68
2022/12/02 04:45:43;;;;;;;19.13;8.87;;;4.60;99.90;;;;;;5019147;28;20300;-70
2022/12/02 04:48:09;;;;;;;19.80;9.27;;;4.50;99.90;;;;;;5016577;28;20240;-70
2022/12/02 04:50:34;;;;;;;21.90;9.60;;;4.50;99.90;;;;;;5015464;28;20220;-70
2022/12/02 04:53:00;;;;;;;17.13;8.60;;;4.50;99.90;;;;;;5019447;28;20235;-70
2022/12/02 04:55:26;;;;;;;23.17;10.53;;;4.50;99.90;;;;;;5023148;28;20221;-69
2022/12/02 04:57:52;;;;;;;27.43;10.50;;;4.60;99.90;;;;;;5000905;28;20259;-70
2022/12/02 05:00:18;;;;;;;20.80;9.87;;;4.50;99.90;;;;;;5013658;28;20228;-69
2022/12/02 05:02:43;;;;;;;22.33;9.67;;;4.50;99.90;;;;;;5015650;28;20460;-69
2022/12/02 05:05:09;;;;;;;24.27;9.93;;;4.60;99.90;;;;;;5011272;28;20455;-69
2022/12/02 05:07:35;;;;;;;29.00;11.47;;;4.60;99.90;;;;;;5013807;28;20233;-70
2022/12/02 05:10:01;;;;;;;21.07;10.37;;;4.60;99.90;;;;;;5017252;28;20461;-70
2022/12/02 05:12:27;;;;;;;23.60;9.77;;;4.50;99.90;;;;;;5016372;28;20228;-70
2022/12/02 05:14:53;;;;;;;21.50;9.50;;;4.60;99.90;;;;;;5018504;28;20463;-70
2022/12/02 05:17:18;;;;;;;23.63;10.63;;;4.60;99.90;;;;;;5014582;28;20218;-70
2022/12/02 05:19:44;;;;;;;24.60;10.77;;;4.50;99.90;;;;;;5002819;28;20209;-70
2022/12/02 05:22:10;;;;;;;21.43;9.83;;;4.50;99.90;;;;;;5015232;28;20241;-70
2022/12/02 05:24:36;;;;;;;18.60;9.17;;;4.50;99.90;;;;;;4997157;28;20216;-70
2022/12/02 05:27:01;;;;;;;26.37;11.03;;;4.60;99.90;;;;;;5009658;28;20271;-71
2022/12/02 05:29:27;;;;;;;27.47;10.87;;;4.60;99.90;;;;;;5016948;28;20241;-71
2022/12/02 05:31:52;;;;;;;26.50;10.90;;;4.60;99.90;;;;;;5015268;28;20208;-69
2022/12/02 05:34:18;;;;;;;25.10;10.20;;;4.60;99.90;;;;;;5014105;28;20251;-70
2022/12/02 05:36:44;;;;;;;25.37;11.60;;;4.50;99.90;;;;;;5007172;28;20214;-70
2022/12/02 05:39:10;;;;;;;26.03;9.70;;;4.60;99.90;;;;;;5007515;28;20216;-70
2022/12/02 05:41:37;;;;;;;21.77;11.30;;;4.50;99.90;;;;;;5004679;28;20217;-69
2022/12/02 05:44:20;;;;;;;26.23;10.67;;;4.50;99.90;;;;;;5010258;28;20212;-70
2022/12/02 05:46:46;;;;;;;25.33;10.17;;;4.50;99.90;;;;;;5016308;28;20527;-70
2022/12/02 05:49:21;;;;;;;24.80;10.77;;;4.50;99.90;;;;;;5011894;28;20583;-70
2022/12/02 05:51:58;;;;;;;26.70;11.33;;;4.60;99.90;;;;;;5021619;28;20977;-70
2022/12/02 05:54:25;;;;;;;19.70;9.87;;;4.50;99.90;;;;;;5002208;28;20501;-70
2022/12/02 05:56:51;;;;;;;24.10;10.30;;;4.50;99.90;;;;;;5016804;28;20514;-70
2022/12/02 05:59:19;;;;;;;25.87;9.37;;;4.50;99.90;;;;;;4998245;28;20808;-69
2022/12/02 06:01:52;;;;;;;27.40;10.90;;;4.50;99.90;;;;;;5014306;28;20499;-70
2022/12/02 06:04:22;;;;;;;23.53;9.90;;;4.50;99.90;;;;;;5014352;28;20535;-70
2022/12/02 06:06:50;;;;;;;22.57;9.33;;;4.50;99.90;;;;;;5018750;28;20444;-70
2022/12/02 06:09:24;;;;;;;25.53;10.93;;;4.40;99.90;;;;;;5015791;28;20523;-69
2022/12/02 06:11:51;;;;;;;21.57;10.47;;;4.50;99.90;;;;;;5016416;28;20448;-70
2022/12/02 06:14:23;;;;;;;32.23;9.50;;;4.50;99.90;;;;;;5004273;28;20466;-70
2022/12/02 06:16:55;;;;;;;22.93;9.80;;;4.50;99.90;;;;;;5032145;28;20443;-70
2022/12/02 06:19:23;;;;;;;28.87;12.13;;;4.50;99.90;;;;;;5012397;28;20519;-70
2022/12/02 06:21:50;;;;;;;27.13;10.30;;;4.50;99.90;;;;;;5033604;28;20450;-70
2022/12/02 06:24:21;;;;;;;25.30;11.50;;;4.50;99.90;;;;;;5025826;28;20545;-70
2022/12/02 06:26:50;;;;;;;23.23;10.20;;;4.50;99.90;;;;;;5044637;28;20435;-70
2022/12/02 06:29:17;;;;;;;25.40;10.17;;;4.50;99.90;;;;;;5019650;28;20504;-70
2022/12/02 06:31:43;;;;;;;23.40;9.70;;;4.50;99.90;;;;;;5023279;28;20972;-69
2022/12/02 06:34:25;;;;;;;23.33;10.20;;;4.60;99.90;;;;;;5030725;28;20451;-69
2022/12/02 06:36:51;;;;;;;22.83;9.90;;;4.60;99.90;;;;;;5016300;28;20239;-70
2022/12/02 06:39:22;;;;;;;22.13;9.83;;;4.50;99.90;;;;;;5007154;28;20447;-70
2022/12/02 06:41:50;;;;;;;22.77;10.37;;;4.60;99.90;;;;;;5002426;28;20443;-70
2022/12/02 06:47:31;;;;;;;16.13;8.83;;;4.60;99.90;;;;;;5027637;28;20502;-71
2022/12/02 06:50:20;;;;;;;24.90;10.53;;;4.60;99.90;;;;;;5026270;28;20481;-70
2022/12/02 06:52:46;;;;;;;21.23;10.30;;;4.60;99.90;;;;;;5018027;28;20435;-70
2022/12/02 06:55:49;;;;;;;29.03;11.30;;;4.60;99.90;;;;;;5017689;28;20443;-71
2022/12/02 06:58:20;;;;;;;25.97;9.33;;;4.60;99.90;;;;;;5008709;28;20606;-70
2022/12/02 07:00:46;;;;;;;18.33;10.23;;;4.60;99.90;;;;;;5019361;28;20443;-70
2022/12/02 07:03:32;;;;;;;31.13;13.70;;;4.60;99.90;;;;;;5009124;28;20212;-70
2022/12/02 07:06:12;;;;;;;25.00;10.60;;;4.60;99.90;;;;;;5010040;28;20452;-70
2022/12/02 07:08:38;;;;;;;23.67;9.77;;;4.60;99.90;;;;;;5010723;28;20485;-69
2022/12/02 07:11:48;;;;;;;23.43;10.57;;;4.60;99.90;;;;;;5022560;28;20455;-70
2022/12/02 07:14:28;;;;;;;25.47;9.53;;;4.50;99.90;;;;;;5027233;28;20224;-70
2022/12/02 07:17:05;;;;;;;20.17;11.23;;;4.60;99.90;;;;;;5005609;28;20452;-70
2022/12/02 07:19:40;;;;;;;22.10;9.87;;;4.70;99.90;;;;;;5019103;28;20438;-70
2022/12/02 07:22:17;;;;;;;26.30;10.80;;;4.60;99.90;;;;;;5026851;28;20980;-70
2022/12/02 07:24:51;;;;;;;31.27;11.33;;;4.60;99.90;;;;;;5025936;28;20451;-70
2022/12/02 07:27:25;;;;;;;24.00;11.07;;;4.70;99.90;;;;;;5028669;28;20487;-69
2022/12/02 07:29:52;;;;;;;20.50;9.40;;;4.60;99.90;;;;;;5030029;28;20929;-70
2022/12/02 07:32:18;;;;;;;26.90;11.97;;;4.70;99.90;;;;;;5030160;28;20990;-70
2022/12/02 07:34:44;;;;;;;25.80;10.27;;;4.70;99.90;;;;;;5015349;28;20515;-70
2022/12/02 07:37:09;;;;;;;21.93;10.07;;;4.60;99.90;;;;;;5036106;28;20539;-69
2022/12/02 07:39:35;;;;;;;27.93;11.70;;;4.70;99.90;;;;;;5013639;28;20217;-69
2022/12/02 07:42:01;;;;;;;20.33;9.97;;;4.70;99.90;;;;;;5028186;28;20270;-70
2022/12/02 07:44:27;;;;;;;23.97;9.40;;;4.60;99.90;;;;;;5005068;28;20268;-71
2022/12/02 07:46:52;;;;;;;30.70;11.80;;;4.60;99.90;;;;;;5026257;28;20690;-70
2022/12/02 07:49:18;;;;;;;26.90;10.93;;;4.60;99.90;;;;;;5024878;28;20256;-69
2022/12/02 07:51:44;;;;;;;27.43;12.47;;;4.60;99.90;;;;;;5030363;28;20245;-70
2022/12/02 07:54:09;;;;;;;23.93;10.47;;;4.60;99.90;;;;;;5023863;28;20670;-69
2022/12/02 07:56:35;;;;;;;18.50;9.63;;;4.70;99.90;;;;;;5011761;28;20228;-70
2022/12/02 07:59:01;;;;;;;21.03;10.50;;;4.60;99.90;;;;;;5030125;28;20215;-70
2022/12/02 08:01:27;;;;;;;21.80;11.40;;;4.60;99.90;;;;;;5025865;28;20451;-70
2022/12/02 08:03:53;;;;;;;20.77;10.90;;;4.60;99.90;;;;;;5004856;28;20590;-70
2022/12/02 08:06:19;;;;;;;24.37;10.97;;;4.60;99.90;;;;;;5031730;28;20695;-70
2022/12/02 08:08:45;;;;;;;23.53;10.60;;;4.60;99.90;;;;;;5024181;28;20279;-70
2022/12/02 08:11:11;;;;;;;20.53;9.50;;;4.70;99.90;;;;;;5024573;28;20221;-70
2022/12/02 08:13:36;;;;;;;25.47;10.50;;;4.60;99.90;;;;;;5029110;28;20882;-70
2022/12/02 08:16:02;;;;;;;27.40;9.70;;;4.70;99.90;;;;;;5015898;28;20263;-69
2022/12/02 08:18:28;;;;;;;26.03;11.93;;;4.70;99.90;;;;;;5020216;28;20219;-70
2022/12/02 08:20:53;;;;;;;22.30;10.67;;;4.70;99.90;;;;;;5030136;28;20506;-70
2022/12/02 08:23:19;;;;;;;24.17;9.87;;;4.70;99.90;;;;;;5019058;28;20255;-70
2022/12/02 08:25:45;;;;;;;29.20;11.37;;;4.70;99.90;;;;;;5000795;28;20235;-70
2022/12/02 08:28:11;;;;;;;25.73;11.47;;;4.70;99.90;;;;;;5019348;28;20255;-70
2022/12/02 08:30:37;;;;;;;22.50;11.90;;;4.70;99.90;;;;;;5001891;28;20902;-70
2022/12/02 08:33:02;;;;;;;31.30;16.13;;;4.70;99.90;;;;;;5023225;28;20300;-70
2022/12/02 08:35:28;;;;;;;31.30;15.33;;;4.70;99.90;;;;;;5020701;28;20217;-71
2022/12/02 08:37:54;;;;;;;30.77;14.67;;;4.70;99.90;;;;;;5009692;28;20283;-70
2022/12/02 08:40:19;;;;;;;22.70;12.93;;;4.70;99.90;;;;;;5019868;28;20699;-69
2022/12/02 08:42:45;;;;;;;33.07;14.60;;;4.70;99.90;;;;;;5013063;28;20224;-69
2022/12/02 08:45:11;;;;;;;29.90;14.17;;;4.70;99.90;;;;;;5023730;28;20221;-68
2022/12/02 08:47:37;;;;;;;27.77;13.90;;;4.70;99.90;;;;;;5023458;28;20278;-70
2022/12/02 08:50:04;;;;;;;30.33;12.40;;;4.70;99.90;;;;;;5014604;28;20460;-70
2022/12/02 08:52:31;;;;;;;28.47;12.30;;;4.70;99.90;;;;;;4994848;28;20452;-70
2022/12/02 08:54:57;;;;;;;21.30;9.93;;;4.70;99.90;;;;;;5024731;28;20526;-70
2022/12/02 08:57:23;;;;;;;24.27;11.87;;;4.70;99.90;;;;;;5000017;28;20453;-70
2022/12/02 08:59:49;;;;;;;25.37;11.27;;;4.70;99.90;;;;;;5002333;28;20516;-70
2022/12/02 09:02:15;;;;;;;29.30;11.57;;;4.70;99.90;;;;;;5021445;28;20459;-70
2022/12/02 09:04:41;;;;;;;28.77;12.30;;;4.70;99.90;;;;;;5003156;28;20223;-70
2022/12/02 09:07:07;;;;;;;22.77;11.80;;;4.70;99.90;;;;;;4997265;28;20590;-69
2022/12/02 09:09:33;;;;;;;30.43;12.33;;;4.70;99.90;;;;;;5015346;28;20447;-70
2022/12/02 09:11:59;;;;;;;25.30;10.60;;;4.70;99.90;;;;;;5017290;28;20474;-69
2022/12/02 09:14:25;;;;;;;31.70;12.37;;;4.80;99.90;;;;;;5020292;28;20612;-70
2022/12/02 09:16:50;;;;;;;32.87;11.30;;;4.70;99.90;;;;;;5023450;28;20292;-70
2022/12/02 09:19:16;;;;;;;28.20;12.03;;;4.70;99.90;;;;;;5001533;28;20220;-70
2022/12/02 09:21:42;;;;;;;26.73;11.70;;;4.70;99.90;;;;;;5009154;28;20267;-70
2022/12/02 09:24:08;;;;;;;26.50;11.83;;;4.70;99.90;;;;;;5007535;28;20762;-69
2022/12/02 09:26:33;;;;;;;32.23;11.30;;;4.70;99.90;;;;;;5019391;28;20220;-70
2022/12/02 09:28:59;;;;;;;27.10;10.80;;;4.70;99.90;;;;;;5022147;28;20621;-70
2022/12/02 09:31:25;;;;;;;25.27;12.00;;;4.60;99.90;;;;;;5012921;28;20228;-70
2022/12/02 09:33:51;;;;;;;21.07;9.53;;;4.60;99.90;;;;;;5020804;28;20217;-71
2022/12/02 09:36:16;;;;;;;19.87;10.23;;;4.60;99.90;;;;;;5020311;28;20223;-71
2022/12/02 09:38:42;;;;;;;25.63;10.40;;;4.60;99.90;;;;;;5006161;28;20251;-69
2022/12/02 09:41:08;;;;;;;19.83;8.70;;;4.60;99.90;;;;;;5018749;28;20225;-69
2022/12/02 09:43:34;;;;;;;16.00;7.80;;;4.50;99.90;;;;;;4999078;28;20283;-70
2022/12/02 09:46:01;;;;;;;21.23;8.93;;;4.60;99.90;;;;;;5026579;28;20479;-70
2022/12/02 09:48:27;;;;;;;18.17;8.77;;;4.60;99.90;;;;;;5024530;28;20471;-70
2022/12/02 09:50:56;;;;;;;15.63;7.17;;;4.60;99.90;;;;;;5021517;28;20534;-70
2022/12/02 09:53:27;;;;;;;17.40;8.83;;;4.60;99.90;;;;;;5020594;28;20468;-70
2022/12/02 09:55:54;;;;;;;15.93;8.90;;;4.50;99.90;;;;;;5020208;28;20451;-70
2022/12/02 09:58:20;;;;;;;18.97;7.30;;;4.50;99.90;;;;;;5008075;28;20820;-70
2022/12/02 10:00:49;;;;;;;17.07;8.63;;;4.40;99.90;;;;;;5019273;28;20472;-70
2022/12/02 10:03:19;;;;;;;14.33;8.13;;;4.40;99.90;;;;;;5009309;28;20456;-71
2022/12/02 10:05:46;;;;;;;18.83;9.80;;;4.50;99.90;;;;;;5020965;28;20545;-70
2022/12/02 10:08:20;;;;;;;15.50;8.70;;;4.40;99.90;;;;;;5009699;28;20480;-70
2022/12/02 10:10:46;;;;;;;16.10;8.10;;;4.50;99.90;;;;;;5009599;28;20454;-70
2022/12/02 10:13:14;;;;;;;17.00;9.63;;;4.50;99.90;;;;;;5006596;28;20482;-70
2022/12/02 10:15:40;;;;;;;13.60;7.40;;;4.40;99.90;;;;;;5003940;28;20458;-70
2022/12/02 10:18:17;;;;;;;25.63;8.63;;;4.40;99.90;;;;;;5022344;28;20451;-69
2022/12/02 10:20:43;;;;;;;17.40;7.80;;;4.40;99.90;;;;;;5020550;28;20538;-70
2022/12/02 10:23:15;;;;;;;16.53;8.90;;;4.30;99.90;;;;;;5012310;28;20999;-70
2022/12/02 10:25:50;;;;;;;20.80;9.73;;;4.30;99.90;;;;;;5006205;28;20467;-69
2022/12/02 10:28:31;;;;;;;15.47;8.57;;;4.40;99.90;;;;;;5020900;28;20494;-69
2022/12/02 10:31:03;;;;;;;16.60;8.20;;;4.30;99.90;;;;;;5026253;28;20493;-70
2022/12/02 10:33:32;;;;;;;15.83;7.50;;;4.30;99.90;;;;;;5024665;28;20460;-70
2022/12/02 10:35:59;;;;;;;12.70;7.17;;;4.30;99.90;;;;;;5001738;28;20471;-70
2022/12/02 10:38:28;;;;;;;15.10;7.97;;;4.30;99.90;;;;;;5008865;28;20509;-70
2022/12/02 10:41:15;;;;;;;15.27;8.00;;;4.30;99.90;;;;;;5005628;28;20479;-70
2022/12/02 10:43:51;;;;;;;12.17;6.80;;;4.30;99.90;;;;;;5022712;28;20544;-70
2022/12/02 10:46:21;;;;;;;10.63;7.13;;;4.20;99.90;;;;;;5023585;28;20459;-70
2022/12/02 10:48:48;;;;;;;11.07;6.63;;;4.30;99.90;;;;;;5021048;28;20609;-71
2022/12/02 10:51:15;;;;;;;13.07;7.30;;;4.30;99.90;;;;;;5007852;28;20533;-70
2022/12/02 10:53:42;;;;;;;17.13;8.00;;;4.30;99.90;;;;;;5018325;28;20459;-69
2022/12/02 10:56:20;;;;;;;13.67;8.50;;;4.30;99.90;;;;;;5009367;28;20498;-70
2022/12/02 10:58:49;;;;;;;14.20;7.40;;;4.30;99.90;;;;;;5023953;28;20460;-70
2022/12/02 11:01:15;;;;;;;13.80;8.53;;;4.40;99.90;;;;;;5015161;28;20491;-69
2022/12/02 11:03:41;;;;;;;16.00;7.47;;;4.30;99.90;;;;;;5024549;28;20458;-70
2022/12/02 11:06:17;;;;;;;11.53;6.87;;;4.30;99.90;;;;;;5023823;28;20804;-70
2022/12/02 11:08:44;;;;;;;11.23;5.70;;;4.20;99.90;;;;;;5021855;28;20228;-71
2022/12/02 11:11:14;;;;;;;11.30;5.97;;;4.20;99.90;;;;;;5020318;28;20554;-69
2022/12/02 11:13:58;;;;;;;10.30;6.10;;;4.30;99.90;;;;;;5020422;28;20474;-69
2022/12/02 11:16:26;;;;;;;7.67;5.27;;;4.20;99.90;;;;;;5009965;28;20485;-70
2022/12/02 11:19:07;;;;;;;8.20;4.80;;;4.30;99.90;;;;;;5019217;28;20455;-70
2022/12/02 11:21:36;;;;;;;10.53;6.10;;;4.20;99.90;;;;;;5021590;28;20546;-71
2022/12/02 11:24:31;;;;;;;13.47;6.80;;;4.30;99.90;;;;;;5008510;28;20471;-70
2022/12/02 11:27:02;;;;;;;12.97;7.10;;;4.20;99.90;;;;;;5013201;28;20471;-70
2022/12/02 11:29:29;;;;;;;7.47;5.77;;;4.30;99.90;;;;;;5003363;28;20444;-71
2022/12/02 11:32:20;;;;;;;11.13;5.80;;;4.40;99.90;;;;;;5019473;28;20518;-70
2022/12/02 11:34:53;;;;;;;10.47;5.27;;;4.40;99.90;;;;;;5019615;28;20974;-70
2022/12/02 11:37:35;;;;;;;12.37;7.87;;;4.40;99.90;;;;;;5020538;28;20448;-70
2022/12/02 11:40:10;;;;;;;16.80;6.10;;;4.40;99.90;;;;;;5019747;28;20459;-70
2022/12/02 11:42:40;;;;;;;14.00;6.37;;;4.40;99.90;;;;;;5000102;28;20460;-71
2022/12/02 11:45:16;;;;;;;11.93;6.80;;;4.40;99.90;;;;;;5021422;28;20471;-70
2022/12/02 11:48:01;;;;;;;22.77;14.60;;;4.50;99.90;;;;;;5006080;28;21008;-70
2022/12/02 11:50:28;;;;;;;34.17;22.13;;;4.60;99.90;;;;;;5007413;28;20467;-70
2022/12/02 11:53:09;;;;;;;23.53;14.30;;;4.40;99.90;;;;;;5024777;28;20456;-69
2022/12/02 11:55:40;;;;;;;18.30;10.27;;;4.30;99.90;;;;;;5017506;28;21022;-70
2022/12/02 11:58:34;;;;;;;17.73;12.33;;;4.40;99.90;;;;;;5029676;28;20462;-70
2022/12/02 12:01:05;;;;;;;13.67;9.83;;;4.40;99.90;;;;;;5004152;28;20472;-71
2022/12/02 12:03:32;;;;;;;16.50;7.70;;;4.30;99.90;;;;;;5017863;28;20451;-70
2022/12/02 12:06:08;;;;;;;10.87;5.90;;;4.40;99.90;;;;;;5021788;28;20452;-70
2022/12/02 12:08:36;;;;;;;10.80;7.10;;;4.40;99.90;;;;;;5021654;28;20466;-71
2022/12/02 12:11:17;;;;;;;12.70;7.23;;;4.40;99.90;;;;;;5009030;28;20443;-71
2022/12/02 12:14:17;;;;;;;9.37;5.83;;;4.40;99.90;;;;;;5019192;28;20487;-69
2022/12/02 12:16:46;;;;;;;10.80;6.50;;;4.30;99.90;;;;;;5001725;28;20521;-70
2022/12/02 12:19:11;;;;;;;9.60;6.07;;;4.30;99.90;;;;;;5005215;28;20483;-70
2022/12/02 12:21:44;;;;;;;10.60;6.10;;;4.20;99.90;;;;;;5021404;28;20482;-70
2022/12/02 12:26:51;;;;;;;13.63;6.57;;;4.20;99.90;;;;;;5019080;28;20451;-70
2022/12/02 12:29:18;;;;;;;10.70;5.73;;;4.30;99.90;;;;;;5019015;28;20462;-70
2022/12/02 12:31:44;;;;;;;10.47;6.17;;;4.30;99.90;;;;;;5019940;28;20454;-70
2022/12/02 12:34:11;;;;;;;10.90;6.20;;;4.20;99.90;;;;;;5020250;28;20966;-68
2022/12/02 12:36:37;;;;;;;13.17;7.47;;;4.30;99.90;;;;;;5023393;28;20855;-70
2022/12/02 12:39:05;;;;;;;9.00;5.60;;;4.30;99.90;;;;;;5016613;28;20436;-70
2022/12/02 12:41:31;;;;;;;13.00;6.93;;;4.30;99.90;;;;;;5016142;28;20447;-69
2022/12/02 12:43:57;;;;;;;13.73;6.47;;;4.30;99.90;;;;;;5022211;28;20459;-70
2022/12/02 12:46:22;;;;;;;12.30;5.87;;;4.30;99.90;;;;;;5021260;28;20295;-70
2022/12/02 12:48:49;;;;;;;8.33;5.80;;;4.30;99.90;;;;;;5018574;28;20236;-70
2022/12/02 12:51:15;;;;;;;13.53;7.60;;;4.30;99.90;;;;;;5001132;28;20463;-71
2022/12/02 12:53:41;;;;;;;13.50;7.30;;;4.20;99.90;;;;;;5016722;28;20324;-71
2022/12/02 12:56:07;;;;;;;11.90;6.73;;;4.30;99.90;;;;;;5021984;28;20299;-70
2022/12/02 12:58:32;;;;;;;13.03;6.60;;;4.20;99.90;;;;;;5002712;28;20327;-69
2022/12/02 13:00:58;;;;;;;9.07;6.20;;;4.20;99.90;;;;;;5023705;28;20244;-70